Terminal Aerodrome Forecast
Issued by NWS

Home | Current Version | Previous Version | Text Only | Print | Product List | Glossary On
Versions: 1 2 3 4 5 6 7 8 9 10 11 12 13 14 15 16 17 18 19 20 21 22 23
621
FTUS46 KEKA 222326
TAFCEC
TAF
KCEC 222326Z 2300/2324 VRB04KT P6SM OVC007
      TEMPO 2300/2302 4SM BR OVC004
     FM230300 18005KT 4SM BR OVC005
     FM230700 17004KT 2SM BR OVC002
     FM231400 VRB03KT 3/4SM BR OVC002=

USA.gov is the U.S. government's official web portal to all federal, state and local government web resources and services.